createdAt,value
2019-04-25T00:02:05.016Z,6.82
2019-04-25T00:07:12.668Z,5.36
2019-04-25T00:12:20.276Z,6.64
2019-04-25T00:17:27.712Z,5.91
2019-04-25T00:22:35.355Z,6.20
2019-04-25T00:27:43.567Z,6.48
2019-04-25T00:32:51.111Z,6.96
2019-04-25T00:37:57.366Z,6.67
2019-04-25T00:43:05.120Z,7.54
2019-04-25T00:48:12.761Z,10.36
2019-04-25T00:53:21.197Z,7.75
2019-04-25T00:58:27.568Z,7.93
2019-04-25T01:03:38.257Z,7.81
2019-04-25T01:08:35.866Z,7.40
2019-04-25T01:13:44.552Z,7.87
2019-04-25T01:18:50.954Z,10.39
2019-04-25T01:23:58.496Z,8.70
2019-04-25T01:29:09.146Z,8.61
2019-04-25T01:34:06.800Z,9.78
2019-04-25T01:39:14.443Z,9.20
2019-04-25T01:44:24.128Z,10.44
2019-04-25T01:49:30.103Z,9.97
2019-04-25T01:54:37.729Z,8.61
2019-04-25T01:59:45.408Z,8.99
2019-04-25T02:04:56.855Z,10.08
2019-04-25T02:10:00.460Z,9.38
2019-04-25T02:15:08.080Z,8.19
2019-04-25T02:20:15.727Z,8.71
2019-04-25T02:25:24.591Z,8.79
2019-04-25T02:30:30.792Z,8.55
2019-04-25T02:35:38.441Z,9.87
2019-04-25T02:40:46.197Z,10.58
2019-04-25T02:45:55.499Z,10.03
2019-04-25T02:51:01.279Z,9.37
2019-04-25T02:56:27.501Z,9.49
2019-04-25T03:01:21.610Z,10.44
2019-04-25T03:06:24.990Z,9.87
2019-04-25T03:11:30.425Z,13.69
2019-04-25T03:16:38.022Z,10.48
2019-04-25T03:21:46.001Z,11.95
2019-04-25T03:26:53.592Z,11.26
2019-04-25T03:32:02.271Z,9.91
2019-04-25T03:37:09.414Z,11.53
2019-04-25T03:42:15.809Z,10.18
2019-04-25T03:47:23.686Z,10.98
2019-04-25T03:52:31.236Z,12.24
2019-04-25T03:57:38.844Z,10.82
2019-04-25T04:02:46.452Z,11.71
2019-04-25T04:07:54.104Z,10.47
2019-04-25T04:13:01.700Z,10.45
2019-04-25T04:18:10.650Z,11.56
2019-04-25T04:23:16.780Z,8.43
2019-04-25T04:28:24.456Z,9.31
2019-04-25T04:33:34.009Z,10.27
2019-04-25T04:38:39.366Z,8.86
2019-04-25T04:43:46.868Z,10.34
2019-04-25T04:48:55.352Z,8.31
2019-04-25T04:54:03.306Z,6.71
2019-04-25T04:59:09.161Z,9.39
2019-04-25T05:04:17.156Z,9.08
2019-04-25T05:09:24.492Z,9.02
2019-04-25T05:14:33.625Z,10.58
2019-04-25T05:19:39.215Z,8.16
2019-04-25T05:24:47.048Z,9.62
2019-04-25T05:29:54.676Z,10.47
2019-04-25T05:35:03.394Z,9.81
2019-04-25T05:40:09.464Z,8.92
2019-04-25T05:45:18.589Z,7.92
2019-04-25T05:50:25.112Z,8.56
2019-04-25T05:55:31.348Z,8.00
2019-04-25T06:00:39.081Z,7.39
2019-04-25T06:05:46.666Z,7.63
2019-04-25T06:10:54.299Z,9.06
2019-04-25T06:16:03.495Z,7.15
2019-04-25T06:21:09.364Z,11.20
2019-04-25T06:26:24.871Z,8.52
2019-04-25T06:31:26.551Z,7.83
2019-04-25T06:36:31.606Z,8.09
2019-04-25T06:41:39.222Z,6.78
2019-04-25T06:46:46.872Z,7.71
2019-04-25T06:51:54.703Z,7.78
2019-04-25T06:57:02.121Z,6.11
2019-04-25T07:02:09.760Z,7.99
2019-04-25T07:07:17.364Z,5.06
2019-04-25T07:12:28.122Z,5.46
2019-04-25T07:17:34.321Z,6.95
2019-04-25T07:22:39.280Z,7.48
2019-04-25T07:27:47.144Z,6.34
2019-04-25T07:32:54.732Z,6.19
2019-04-25T07:38:03.927Z,6.01
2019-04-25T07:43:09.460Z,6.40
2019-04-25T07:48:17.049Z,6.86
2019-04-25T07:53:27.017Z,6.42
2019-04-25T07:58:43.448Z,4.82
2019-04-25T08:03:38.997Z,7.69
2019-04-25T08:08:46.585Z,5.45
2019-04-25T08:13:54.240Z,5.33
2019-04-25T08:19:03.390Z,4.58
2019-04-25T08:24:09.011Z,4.51
2019-04-25T08:29:16.627Z,7.58
2019-04-25T08:34:24.493Z,4.59
2019-04-25T08:39:34.133Z,5.57
2019-04-25T08:44:39.307Z,5.37
2019-04-25T08:49:49.385Z,4.99
2019-04-25T08:54:54.623Z,6.46
2019-04-25T09:00:01.125Z,5.26
2019-04-25T09:05:08.926Z,5.04
2019-04-25T09:10:16.527Z,4.58
2019-04-25T09:15:24.302Z,3.79
2019-04-25T09:20:31.696Z,6.03
2019-04-25T09:25:40.644Z,5.43
2019-04-25T09:30:46.720Z,3.98
2019-04-25T09:35:55.409Z,5.79
2019-04-25T09:41:03.856Z,4.35
2019-04-25T09:46:10.140Z,5.25
2019-04-25T09:51:17.968Z,4.69
2019-04-25T09:56:25.573Z,5.04
2019-04-25T10:01:33.867Z,4.81
2019-04-25T10:06:40.692Z,3.76
2019-04-25T10:11:48.117Z,4.04
2019-04-25T10:16:55.926Z,3.70
2019-04-25T10:22:03.513Z,3.62
2019-04-25T10:27:11.125Z,4.20
2019-04-25T10:32:18.750Z,4.32
2019-04-25T10:37:26.420Z,3.97
2019-04-25T10:42:34.366Z,4.03
2019-04-25T10:47:43.948Z,4.18
2019-04-25T10:52:49.262Z,3.13
2019-04-25T10:57:56.924Z,4.56
2019-04-25T11:03:04.525Z,4.17
2019-04-25T11:08:13.731Z,2.97
2019-04-25T11:13:19.385Z,3.28
2019-04-25T11:18:27.016Z,3.32
2019-04-25T11:23:34.643Z,3.91
2019-04-25T11:28:45.141Z,3.47
2019-04-25T11:33:49.960Z,3.18
2019-04-25T11:38:56.864Z,3.63
2019-04-25T11:44:04.468Z,3.02
2019-04-25T11:49:13.120Z,3.24
2019-04-25T11:54:19.263Z,4.06
2019-04-25T11:59:27.184Z,3.83
2019-04-25T12:04:34.856Z,3.28
2019-04-25T12:09:45.471Z,3.78
2019-04-25T12:14:49.672Z,3.93
2019-04-25T12:19:57.496Z,3.10
2019-04-25T12:25:04.968Z,3.59
2019-04-25T12:30:13.940Z,3.61
2019-04-25T12:35:19.688Z,4.51
2019-04-25T12:40:27.588Z,4.10
2019-04-25T12:45:35.189Z,5.85
2019-04-25T12:50:43.972Z,4.41
2019-04-25T12:55:50.012Z,3.62
2019-04-25T13:00:59.913Z,3.62
2019-04-25T13:06:04.756Z,3.35
2019-04-25T13:11:13.875Z,2.51
2019-04-25T13:16:19.612Z,4.24
2019-04-25T13:21:27.200Z,4.96
2019-04-25T13:26:35.085Z,5.20
2019-04-25T13:31:44.233Z,4.57
2019-04-25T13:36:49.873Z,4.65
2019-04-25T13:41:59.768Z,4.59
2019-04-25T13:47:04.704Z,6.53
2019-04-25T13:52:12.322Z,5.66
2019-04-25T13:57:20.734Z,4.83
2019-04-25T14:02:27.269Z,4.57
2019-04-25T14:07:34.864Z,4.77
2019-04-25T14:12:43.548Z,4.73
2019-04-25T14:17:49.641Z,4.84
2019-04-25T14:22:57.260Z,5.04
2019-04-25T14:28:05.626Z,4.53
2019-04-25T14:33:13.587Z,6.20
2019-04-25T14:38:19.412Z,5.71
2019-04-25T14:43:27.033Z,6.15
2019-04-25T14:48:34.626Z,5.54
2019-04-25T14:53:42.589Z,4.95
2019-04-25T14:58:50.180Z,5.84
2019-04-25T15:03:58.490Z,6.34
2019-04-25T15:09:06.423Z,6.04
2019-04-25T15:14:14.093Z,7.46
2019-04-25T15:19:21.681Z,5.36
2019-04-25T15:24:30.225Z,4.71
2019-04-25T15:29:36.796Z,6.01
2019-04-25T15:34:44.500Z,5.45
2019-04-25T15:39:52.105Z,4.90
2019-04-25T15:44:59.738Z,3.52
2019-04-25T15:50:07.341Z,4.14
2019-04-25T15:55:14.964Z,4.16
2019-04-25T16:00:22.585Z,5.63
2019-04-25T16:05:30.161Z,5.17
2019-04-25T16:10:37.796Z,4.76
2019-04-25T16:15:45.387Z,3.02
2019-04-25T16:20:53.012Z,4.10
2019-04-25T16:26:00.596Z,4.96
2019-04-25T16:31:08.585Z,3.58
2019-04-25T16:36:16.172Z,3.32
2019-04-25T16:41:23.760Z,3.50
2019-04-25T16:46:32.094Z,5.28
2019-04-25T16:51:38.522Z,3.59
2019-04-25T16:56:46.116Z,4.38
2019-04-25T17:01:53.760Z,3.31
2019-04-25T17:07:01.357Z,4.58
2019-04-25T17:12:08.957Z,5.63
2019-04-25T17:17:16.588Z,5.03
2019-04-25T17:22:24.196Z,4.18
2019-04-25T17:27:31.941Z,5.35
2019-04-25T17:32:51.188Z,4.90
2019-04-25T17:37:46.056Z,4.28
2019-04-25T17:42:53.670Z,2.82
2019-04-25T17:48:01.524Z,3.35
2019-04-25T17:53:09.150Z,2.99
2019-04-25T17:58:16.734Z,3.66
2019-04-25T18:03:24.405Z,2.89
2019-04-25T18:08:31.997Z,1.29
2019-04-25T18:13:40.093Z,2.90
2019-04-25T18:18:46.708Z,1.63
2019-04-25T18:23:54.314Z,1.97
2019-04-25T18:29:01.921Z,2.33
2019-04-25T18:34:09.500Z,2.37
2019-04-25T18:39:17.136Z,1.69
2019-04-25T18:44:25.052Z,2.81
2019-04-25T18:49:32.644Z,2.73
2019-04-25T18:54:41.097Z,2.26
2019-04-25T18:59:48.217Z,2.04
2019-04-25T19:04:54.494Z,2.54
2019-04-25T19:10:02.080Z,3.24
2019-04-25T19:15:09.744Z,3.01
2019-04-25T19:20:17.340Z,2.66
2019-04-25T19:25:25.012Z,2.89
2019-04-25T19:30:32.552Z,2.56
2019-04-25T19:35:40.572Z,2.31
2019-04-25T19:40:48.130Z,2.26
2019-04-25T19:45:55.010Z,1.82
2019-04-25T19:51:02.616Z,2.06
2019-04-25T19:56:10.521Z,2.25
2019-04-25T20:01:18.132Z,2.50
2019-04-25T20:06:25.716Z,2.09
2019-04-25T20:11:33.408Z,2.82
2019-04-25T20:16:40.998Z,3.22
2019-04-25T20:21:48.620Z,2.72
2019-04-25T20:26:56.229Z,2.91
2019-04-25T20:32:03.817Z,1.79
2019-04-25T20:37:11.409Z,2.08
2019-04-25T20:42:19.033Z,2.28
2019-04-25T20:47:26.616Z,2.03
2019-04-25T20:52:34.384Z,2.62
2019-04-25T20:57:41.979Z,1.97
2019-04-25T21:02:49.821Z,4.27
2019-04-25T21:07:57.527Z,3.88
2019-04-25T21:13:04.846Z,3.15
2019-04-25T21:18:12.424Z,3.09
2019-04-25T21:23:20.037Z,2.72
2019-04-25T21:28:27.633Z,2.58
2019-04-25T21:33:35.320Z,3.12
2019-04-25T21:38:42.928Z,3.94
2019-04-25T21:43:50.548Z,3.02
2019-04-25T21:48:57.701Z,2.51
2019-04-25T21:54:05.307Z,3.00
2019-04-25T21:59:12.910Z,2.48
2019-04-25T22:04:20.504Z,2.69
2019-04-25T22:09:28.192Z,3.06
2019-04-25T22:14:35.786Z,3.00
2019-04-25T22:19:43.376Z,2.31
2019-04-25T22:24:50.984Z,2.60
2019-04-25T22:29:59.703Z,3.60
2019-04-25T22:35:05.976Z,2.75
2019-04-25T22:40:13.556Z,3.35
2019-04-25T22:45:21.172Z,2.43
2019-04-25T22:50:28.764Z,3.15
2019-04-25T22:55:36.360Z,2.35
2019-04-25T23:00:43.956Z,3.62
2019-04-25T23:05:51.552Z,3.30
2019-04-25T23:10:59.150Z,3.05
2019-04-25T23:16:06.958Z,5.01
2019-04-25T23:21:14.535Z,3.09
2019-04-25T23:26:21.946Z,3.07
2019-04-25T23:31:29.528Z,3.53
2019-04-25T23:36:37.120Z,3.99
2019-04-25T23:41:44.703Z,3.60
2019-04-25T23:46:52.372Z,3.50
2019-04-25T23:51:59.972Z,4.14
2019-04-25T23:57:08.286Z,5.27
